sensor_id;sensor_type;location;lat;lon;timestamp;temperature;humidity
10644;DHT22;5370;50.132;8.626;2022-07-23T00:00:29;22.00;61.40
10644;DHT22;5370;50.132;8.626;2022-07-23T00:03:03;21.90;61.30
10644;DHT22;5370;50.132;8.626;2022-07-23T00:05:29;21.90;61.60
10644;DHT22;5370;50.132;8.626;2022-07-23T00:07:54;21.80;61.80
10644;DHT22;5370;50.132;8.626;2022-07-23T00:10:20;21.70;62.00
10644;DHT22;5370;50.132;8.626;2022-07-23T00:12:46;21.70;62.30
10644;DHT22;5370;50.132;8.626;2022-07-23T00:15:12;21.60;62.60
10644;DHT22;5370;50.132;8.626;2022-07-23T00:17:37;21.60;63.30
10644;DHT22;5370;50.132;8.626;2022-07-23T00:20:03;21.50;63.50
10644;DHT22;5370;50.132;8.626;2022-07-23T00:22:29;21.40;63.20
10644;DHT22;5370;50.132;8.626;2022-07-23T00:24:58;21.50;63.50
10644;DHT22;5370;50.132;8.626;2022-07-23T00:27:24;21.40;63.70
10644;DHT22;5370;50.132;8.626;2022-07-23T00:29:49;21.30;63.90
10644;DHT22;5370;50.132;8.626;2022-07-23T00:32:15;21.30;64.00
10644;DHT22;5370;50.132;8.626;2022-07-23T00:34:41;21.30;64.20
10644;DHT22;5370;50.132;8.626;2022-07-23T00:37:06;21.20;64.00
10644;DHT22;5370;50.132;8.626;2022-07-23T00:39:32;21.30;64.50
10644;DHT22;5370;50.132;8.626;2022-07-23T00:41:57;21.20;64.50
10644;DHT22;5370;50.132;8.626;2022-07-23T00:44:25;21.20;64.70
10644;DHT22;5370;50.132;8.626;2022-07-23T00:46:53;21.20;64.80
10644;DHT22;5370;50.132;8.626;2022-07-23T00:49:21;21.30;65.10
10644;DHT22;5370;50.132;8.626;2022-07-23T00:51:48;21.20;65.00
10644;DHT22;5370;50.132;8.626;2022-07-23T00:54:15;21.30;65.20
10644;DHT22;5370;50.132;8.626;2022-07-23T00:56:43;21.20;65.40
10644;DHT22;5370;50.132;8.626;2022-07-23T00:59:09;21.20;65.50
10644;DHT22;5370;50.132;8.626;2022-07-23T01:01:34;21.10;65.90
10644;DHT22;5370;50.132;8.626;2022-07-23T01:04:00;21.10;66.20
10644;DHT22;5370;50.132;8.626;2022-07-23T01:06:25;21.00;66.30
10644;DHT22;5370;50.132;8.626;2022-07-23T01:08:52;21.00;66.80
10644;DHT22;5370;50.132;8.626;2022-07-23T01:11:18;20.90;67.00
10644;DHT22;5370;50.132;8.626;2022-07-23T01:13:44;20.90;67.10
10644;DHT22;5370;50.132;8.626;2022-07-23T01:16:10;20.90;67.60
10644;DHT22;5370;50.132;8.626;2022-07-23T01:18:35;20.90;67.70
10644;DHT22;5370;50.132;8.626;2022-07-23T01:21:01;20.90;68.00
10644;DHT22;5370;50.132;8.626;2022-07-23T01:23:27;20.80;68.20
10644;DHT22;5370;50.132;8.626;2022-07-23T01:25:53;20.80;68.30
10644;DHT22;5370;50.132;8.626;2022-07-23T01:28:19;20.80;68.40
10644;DHT22;5370;50.132;8.626;2022-07-23T01:30:45;20.90;68.40
10644;DHT22;5370;50.132;8.626;2022-07-23T01:33:11;20.90;68.20
10644;DHT22;5370;50.132;8.626;2022-07-23T01:35:36;21.00;68.60
10644;DHT22;5370;50.132;8.626;2022-07-23T01:38:02;21.00;69.00
10644;DHT22;5370;50.132;8.626;2022-07-23T01:40:27;21.00;68.30
10644;DHT22;5370;50.132;8.626;2022-07-23T01:42:53;21.10;68.40
10644;DHT22;5370;50.132;8.626;2022-07-23T01:45:18;21.10;68.40
10644;DHT22;5370;50.132;8.626;2022-07-23T01:47:44;21.10;68.50
10644;DHT22;5370;50.132;8.626;2022-07-23T01:50:10;21.10;68.70
10644;DHT22;5370;50.132;8.626;2022-07-23T01:52:35;21.10;68.70
10644;DHT22;5370;50.132;8.626;2022-07-23T01:55:01;21.10;69.10
10644;DHT22;5370;50.132;8.626;2022-07-23T01:57:26;21.00;69.40
10644;DHT22;5370;50.132;8.626;2022-07-23T01:59:52;21.00;69.60
10644;DHT22;5370;50.132;8.626;2022-07-23T02:02:17;21.00;70.00
10644;DHT22;5370;50.132;8.626;2022-07-23T02:04:43;21.00;70.40
10644;DHT22;5370;50.132;8.626;2022-07-23T02:07:09;21.00;70.50
10644;DHT22;5370;50.132;8.626;2022-07-23T02:09:34;21.00;70.50
10644;DHT22;5370;50.132;8.626;2022-07-23T02:12:00;21.00;70.80
10644;DHT22;5370;50.132;8.626;2022-07-23T02:14:26;21.00;71.00
10644;DHT22;5370;50.132;8.626;2022-07-23T02:16:52;21.00;71.20
10644;DHT22;5370;50.132;8.626;2022-07-23T02:19:18;20.90;71.40
10644;DHT22;5370;50.132;8.626;2022-07-23T02:21:43;20.90;71.40
10644;DHT22;5370;50.132;8.626;2022-07-23T02:24:09;20.80;71.50
10644;DHT22;5370;50.132;8.626;2022-07-23T02:26:35;20.80;71.50
10644;DHT22;5370;50.132;8.626;2022-07-23T02:29:02;20.80;71.90
10644;DHT22;5370;50.132;8.626;2022-07-23T02:31:29;20.80;71.80
10644;DHT22;5370;50.132;8.626;2022-07-23T02:33:54;20.70;71.80
10644;DHT22;5370;50.132;8.626;2022-07-23T02:36:21;20.70;71.90
10644;DHT22;5370;50.132;8.626;2022-07-23T02:38:46;20.70;72.20
10644;DHT22;5370;50.132;8.626;2022-07-23T02:41:12;20.60;72.30
10644;DHT22;5370;50.132;8.626;2022-07-23T02:43:38;20.60;72.70
10644;DHT22;5370;50.132;8.626;2022-07-23T02:46:04;20.60;73.10
10644;DHT22;5370;50.132;8.626;2022-07-23T02:48:30;20.60;73.10
10644;DHT22;5370;50.132;8.626;2022-07-23T02:50:55;20.60;73.20
10644;DHT22;5370;50.132;8.626;2022-07-23T02:53:22;20.60;73.10
10644;DHT22;5370;50.132;8.626;2022-07-23T02:55:48;20.60;72.80
10644;DHT22;5370;50.132;8.626;2022-07-23T02:58:13;20.70;72.70
10644;DHT22;5370;50.132;8.626;2022-07-23T03:00:39;20.70;72.40
10644;DHT22;5370;50.132;8.626;2022-07-23T03:03:04;20.70;72.30
10644;DHT22;5370;50.132;8.626;2022-07-23T03:05:30;20.70;72.20
10644;DHT22;5370;50.132;8.626;2022-07-23T03:07:55;20.70;72.10
10644;DHT22;5370;50.132;8.626;2022-07-23T03:10:21;20.80;72.00
10644;DHT22;5370;50.132;8.626;2022-07-23T03:12:46;20.80;71.90
10644;DHT22;5370;50.132;8.626;2022-07-23T03:15:12;20.80;72.10
10644;DHT22;5370;50.132;8.626;2022-07-23T03:17:38;20.70;72.40
10644;DHT22;5370;50.132;8.626;2022-07-23T03:20:03;20.70;72.60
10644;DHT22;5370;50.132;8.626;2022-07-23T03:22:29;20.70;72.70
10644;DHT22;5370;50.132;8.626;2022-07-23T03:24:55;20.70;72.60
10644;DHT22;5370;50.132;8.626;2022-07-23T03:27:22;20.60;72.80
10644;DHT22;5370;50.132;8.626;2022-07-23T03:29:48;20.60;73.10
10644;DHT22;5370;50.132;8.626;2022-07-23T03:32:14;20.60;73.30
10644;DHT22;5370;50.132;8.626;2022-07-23T03:34:40;20.50;73.40
10644;DHT22;5370;50.132;8.626;2022-07-23T03:37:05;20.50;73.70
10644;DHT22;5370;50.132;8.626;2022-07-23T03:39:31;20.40;74.00
10644;DHT22;5370;50.132;8.626;2022-07-23T03:41:57;20.40;74.10
10644;DHT22;5370;50.132;8.626;2022-07-23T03:44:23;20.40;74.30
10644;DHT22;5370;50.132;8.626;2022-07-23T03:46:48;20.40;75.00
10644;DHT22;5370;50.132;8.626;2022-07-23T03:49:14;20.30;75.00
10644;DHT22;5370;50.132;8.626;2022-07-23T03:51:39;20.30;75.50
10644;DHT22;5370;50.132;8.626;2022-07-23T03:54:05;20.40;75.70
10644;DHT22;5370;50.132;8.626;2022-07-23T03:56:30;20.30;75.70
10644;DHT22;5370;50.132;8.626;2022-07-23T03:58:56;20.40;75.70
10644;DHT22;5370;50.132;8.626;2022-07-23T04:01:22;20.40;76.00
10644;DHT22;5370;50.132;8.626;2022-07-23T04:03:47;20.40;76.10
10644;DHT22;5370;50.132;8.626;2022-07-23T04:06:13;20.40;76.10
10644;DHT22;5370;50.132;8.626;2022-07-23T04:08:38;20.40;76.20
10644;DHT22;5370;50.132;8.626;2022-07-23T04:11:04;20.40;76.30
10644;DHT22;5370;50.132;8.626;2022-07-23T04:13:30;20.40;76.60
10644;DHT22;5370;50.132;8.626;2022-07-23T04:15:55;20.40;76.40
10644;DHT22;5370;50.132;8.626;2022-07-23T04:18:21;20.40;76.40
10644;DHT22;5370;50.132;8.626;2022-07-23T04:20:50;20.40;76.70
10644;DHT22;5370;50.132;8.626;2022-07-23T04:23:16;20.40;76.50
10644;DHT22;5370;50.132;8.626;2022-07-23T04:25:42;20.40;76.90
10644;DHT22;5370;50.132;8.626;2022-07-23T04:28:07;20.30;76.90
10644;DHT22;5370;50.132;8.626;2022-07-23T04:30:33;20.30;76.80
10644;DHT22;5370;50.132;8.626;2022-07-23T04:32:59;20.30;76.90
10644;DHT22;5370;50.132;8.626;2022-07-23T04:35:25;20.30;76.80
10644;DHT22;5370;50.132;8.626;2022-07-23T04:37:50;20.40;76.90
10644;DHT22;5370;50.132;8.626;2022-07-23T04:40:16;20.40;76.80
10644;DHT22;5370;50.132;8.626;2022-07-23T04:42:41;20.40;76.70
10644;DHT22;5370;50.132;8.626;2022-07-23T04:45:07;20.50;76.50
10644;DHT22;5370;50.132;8.626;2022-07-23T04:47:33;20.60;76.40
10644;DHT22;5370;50.132;8.626;2022-07-23T04:49:59;20.60;76.00
10644;DHT22;5370;50.132;8.626;2022-07-23T04:52:24;20.70;75.70
10644;DHT22;5370;50.132;8.626;2022-07-23T04:54:50;20.80;75.00
10644;DHT22;5370;50.132;8.626;2022-07-23T04:57:15;20.80;74.60
10644;DHT22;5370;50.132;8.626;2022-07-23T04:59:41;20.90;74.40
10644;DHT22;5370;50.132;8.626;2022-07-23T05:02:06;21.00;74.00
10644;DHT22;5370;50.132;8.626;2022-07-23T05:04:32;21.20;73.40
10644;DHT22;5370;50.132;8.626;2022-07-23T05:06:59;21.40;72.20
10644;DHT22;5370;50.132;8.626;2022-07-23T05:09:25;21.40;71.20
10644;DHT22;5370;50.132;8.626;2022-07-23T05:11:51;21.50;70.20
10644;DHT22;5370;50.132;8.626;2022-07-23T05:14:16;21.40;69.60
10644;DHT22;5370;50.132;8.626;2022-07-23T05:16:42;21.40;69.40
10644;DHT22;5370;50.132;8.626;2022-07-23T05:19:07;21.30;69.10
10644;DHT22;5370;50.132;8.626;2022-07-23T05:21:33;21.30;69.20
10644;DHT22;5370;50.132;8.626;2022-07-23T05:23:59;21.30;69.30
10644;DHT22;5370;50.132;8.626;2022-07-23T05:26:25;21.30;68.90
10644;DHT22;5370;50.132;8.626;2022-07-23T05:28:51;21.30;68.60
10644;DHT22;5370;50.132;8.626;2022-07-23T05:31:16;21.30;68.10
10644;DHT22;5370;50.132;8.626;2022-07-23T05:33:42;21.30;67.70
10644;DHT22;5370;50.132;8.626;2022-07-23T05:36:08;21.30;67.50
10644;DHT22;5370;50.132;8.626;2022-07-23T05:38:34;21.30;67.00
10644;DHT22;5370;50.132;8.626;2022-07-23T05:41:00;21.40;66.30
10644;DHT22;5370;50.132;8.626;2022-07-23T05:43:26;21.40;65.60
10644;DHT22;5370;50.132;8.626;2022-07-23T05:45:52;21.50;65.40
10644;DHT22;5370;50.132;8.626;2022-07-23T05:48:17;21.50;65.00
10644;DHT22;5370;50.132;8.626;2022-07-23T05:50:43;21.60;64.60
10644;DHT22;5370;50.132;8.626;2022-07-23T05:53:09;21.70;64.10
10644;DHT22;5370;50.132;8.626;2022-07-23T05:55:34;21.90;63.80
10644;DHT22;5370;50.132;8.626;2022-07-23T05:58:00;22.00;63.30
10644;DHT22;5370;50.132;8.626;2022-07-23T06:00:26;22.20;62.40
10644;DHT22;5370;50.132;8.626;2022-07-23T06:02:52;22.30;62.00
10644;DHT22;5370;50.132;8.626;2022-07-23T06:05:18;22.50;61.60
10644;DHT22;5370;50.132;8.626;2022-07-23T06:07:44;22.70;60.10
10644;DHT22;5370;50.132;8.626;2022-07-23T06:10:10;22.70;59.30
10644;DHT22;5370;50.132;8.626;2022-07-23T06:12:36;22.60;59.00
10644;DHT22;5370;50.132;8.626;2022-07-23T06:15:01;22.40;58.90
10644;DHT22;5370;50.132;8.626;2022-07-23T06:17:28;22.40;59.20
10644;DHT22;5370;50.132;8.626;2022-07-23T06:19:54;22.50;59.50
10644;DHT22;5370;50.132;8.626;2022-07-23T06:22:20;23.20;59.30
10644;DHT22;5370;50.132;8.626;2022-07-23T06:24:46;24.10;57.50
10644;DHT22;5370;50.132;8.626;2022-07-23T06:27:12;25.30;56.00
10644;DHT22;5370;50.132;8.626;2022-07-23T06:29:37;26.30;52.20
10644;DHT22;5370;50.132;8.626;2022-07-23T06:32:03;27.30;49.90
10644;DHT22;5370;50.132;8.626;2022-07-23T06:34:29;28.20;47.80
10644;DHT22;5370;50.132;8.626;2022-07-23T06:36:54;29.10;45.80
10644;DHT22;5370;50.132;8.626;2022-07-23T06:39:20;30.10;44.50
10644;DHT22;5370;50.132;8.626;2022-07-23T06:41:45;31.20;41.70
10644;DHT22;5370;50.132;8.626;2022-07-23T06:44:11;32.00;40.10
10644;DHT22;5370;50.132;8.626;2022-07-23T06:46:37;32.70;38.00
10644;DHT22;5370;50.132;8.626;2022-07-23T06:49:02;32.90;36.20
10644;DHT22;5370;50.132;8.626;2022-07-23T06:51:29;33.30;35.50
10644;DHT22;5370;50.132;8.626;2022-07-23T06:53:55;33.60;34.50
10644;DHT22;5370;50.132;8.626;2022-07-23T06:56:21;33.90;34.20
10644;DHT22;5370;50.132;8.626;2022-07-23T06:58:46;34.20;33.50
10644;DHT22;5370;50.132;8.626;2022-07-23T07:01:12;34.60;32.60
10644;DHT22;5370;50.132;8.626;2022-07-23T07:03:37;34.70;32.40
10644;DHT22;5370;50.132;8.626;2022-07-23T07:06:03;35.00;32.40
10644;DHT22;5370;50.132;8.626;2022-07-23T07:08:28;35.20;30.90
10644;DHT22;5370;50.132;8.626;2022-07-23T07:10:54;35.30;30.40
10644;DHT22;5370;50.132;8.626;2022-07-23T07:13:20;35.10;30.30
10644;DHT22;5370;50.132;8.626;2022-07-23T07:15:45;35.10;30.50
10644;DHT22;5370;50.132;8.626;2022-07-23T07:18:11;35.80;30.30
10644;DHT22;5370;50.132;8.626;2022-07-23T07:20:36;36.50;29.00
10644;DHT22;5370;50.132;8.626;2022-07-23T07:23:02;36.30;28.10
10644;DHT22;5370;50.132;8.626;2022-07-23T07:25:28;36.70;28.20
10644;DHT22;5370;50.132;8.626;2022-07-23T07:27:53;36.70;28.30
10644;DHT22;5370;50.132;8.626;2022-07-23T07:30:19;36.70;27.70
10644;DHT22;5370;50.132;8.626;2022-07-23T07:32:44;37.30;27.50
10644;DHT22;5370;50.132;8.626;2022-07-23T07:35:10;37.70;26.80
10644;DHT22;5370;50.132;8.626;2022-07-23T07:37:36;37.90;26.30
10644;DHT22;5370;50.132;8.626;2022-07-23T07:40:02;37.80;26.10
10644;DHT22;5370;50.132;8.626;2022-07-23T07:42:28;37.50;26.50
10644;DHT22;5370;50.132;8.626;2022-07-23T07:44:54;37.30;26.80
10644;DHT22;5370;50.132;8.626;2022-07-23T07:47:19;37.20;26.90
10644;DHT22;5370;50.132;8.626;2022-07-23T07:49:45;37.40;26.70
10644;DHT22;5370;50.132;8.626;2022-07-23T07:52:10;37.70;26.40
10644;DHT22;5370;50.132;8.626;2022-07-23T07:54:37;37.90;26.20
10644;DHT22;5370;50.132;8.626;2022-07-23T07:57:02;37.80;26.20
10644;DHT22;5370;50.132;8.626;2022-07-23T07:59:28;37.70;26.20
10644;DHT22;5370;50.132;8.626;2022-07-23T08:01:54;37.50;26.50
10644;DHT22;5370;50.132;8.626;2022-07-23T08:04:19;37.20;26.50
10644;DHT22;5370;50.132;8.626;2022-07-23T08:06:45;37.50;26.50
10644;DHT22;5370;50.132;8.626;2022-07-23T08:09:11;37.50;26.30
10644;DHT22;5370;50.132;8.626;2022-07-23T08:11:36;37.70;26.10
10644;DHT22;5370;50.132;8.626;2022-07-23T08:14:02;37.70;26.00
10644;DHT22;5370;50.132;8.626;2022-07-23T08:16:28;37.60;26.10
10644;DHT22;5370;50.132;8.626;2022-07-23T08:18:53;37.80;26.10
10644;DHT22;5370;50.132;8.626;2022-07-23T08:21:19;38.10;26.10
10644;DHT22;5370;50.132;8.626;2022-07-23T08:23:45;38.00;26.00
10644;DHT22;5370;50.132;8.626;2022-07-23T08:26:11;38.00;26.00
10644;DHT22;5370;50.132;8.626;2022-07-23T08:28:36;37.90;25.90
10644;DHT22;5370;50.132;8.626;2022-07-23T08:31:02;37.60;26.30
10644;DHT22;5370;50.132;8.626;2022-07-23T08:33:28;37.00;26.50
10644;DHT22;5370;50.132;8.626;2022-07-23T08:35:54;36.40;27.30
10644;DHT22;5370;50.132;8.626;2022-07-23T08:38:21;36.20;27.80
10644;DHT22;5370;50.132;8.626;2022-07-23T08:40:49;36.20;27.70
10644;DHT22;5370;50.132;8.626;2022-07-23T08:43:19;36.20;27.70
10644;DHT22;5370;50.132;8.626;2022-07-23T08:45:53;36.50;27.60
10644;DHT22;5370;50.132;8.626;2022-07-23T08:48:33;37.00;27.20
10644;DHT22;5370;50.132;8.626;2022-07-23T08:51:01;37.20;26.80
10644;DHT22;5370;50.132;8.626;2022-07-23T08:53:28;37.20;26.80
10644;DHT22;5370;50.132;8.626;2022-07-23T08:55:56;36.80;27.00
10644;DHT22;5370;50.132;8.626;2022-07-23T08:58:23;35.90;27.50
10644;DHT22;5370;50.132;8.626;2022-07-23T09:00:49;35.10;28.40
10644;DHT22;5370;50.132;8.626;2022-07-23T09:03:16;34.20;29.20
10644;DHT22;5370;50.132;8.626;2022-07-23T09:05:43;33.50;30.00
10644;DHT22;5370;50.132;8.626;2022-07-23T09:08:11;32.80;30.80
10644;DHT22;5370;50.132;8.626;2022-07-23T09:10:43;32.10;31.90
10644;DHT22;5370;50.132;8.626;2022-07-23T09:15:51;30.60;34.50
10644;DHT22;5370;50.132;8.626;2022-07-23T09:18:17;30.30;35.40
10644;DHT22;5370;50.132;8.626;2022-07-23T09:20:46;30.00;35.90
10644;DHT22;5370;50.132;8.626;2022-07-23T09:23:11;29.70;36.60
10644;DHT22;5370;50.132;8.626;2022-07-23T09:25:37;29.20;37.50
10644;DHT22;5370;50.132;8.626;2022-07-23T09:28:03;29.00;38.00
10644;DHT22;5370;50.132;8.626;2022-07-23T09:30:32;28.90;38.40
10644;DHT22;5370;50.132;8.626;2022-07-23T09:38:16;29.30;38.30
10644;DHT22;5370;50.132;8.626;2022-07-23T09:40:43;29.40;37.90
10644;DHT22;5370;50.132;8.626;2022-07-23T09:43:09;29.50;37.90
10644;DHT22;5370;50.132;8.626;2022-07-23T09:45:35;29.70;38.00
10644;DHT22;5370;50.132;8.626;2022-07-23T09:48:16;29.90;37.80
10644;DHT22;5370;50.132;8.626;2022-07-23T09:50:43;30.10;37.10
10644;DHT22;5370;50.132;8.626;2022-07-23T09:53:10;29.90;36.70
10644;DHT22;5370;50.132;8.626;2022-07-23T09:55:48;30.10;36.40
10644;DHT22;5370;50.132;8.626;2022-07-23T09:58:14;30.20;35.90
10644;DHT22;5370;50.132;8.626;2022-07-23T10:00:41;30.30;36.10
10644;DHT22;5370;50.132;8.626;2022-07-23T10:03:08;30.40;35.80
10644;DHT22;5370;50.132;8.626;2022-07-23T10:05:35;30.40;35.50
10644;DHT22;5370;50.132;8.626;2022-07-23T10:08:02;30.50;35.40
10644;DHT22;5370;50.132;8.626;2022-07-23T10:10:28;30.60;35.20
10644;DHT22;5370;50.132;8.626;2022-07-23T10:12:55;30.50;35.80
10644;DHT22;5370;50.132;8.626;2022-07-23T10:15:21;30.30;35.40
10644;DHT22;5370;50.132;8.626;2022-07-23T10:17:48;30.10;35.70
10644;DHT22;5370;50.132;8.626;2022-07-23T10:20:14;30.00;36.20
10644;DHT22;5370;50.132;8.626;2022-07-23T10:22:57;30.00;36.30
10644;DHT22;5370;50.132;8.626;2022-07-23T10:25:44;29.80;36.30
10644;DHT22;5370;50.132;8.626;2022-07-23T10:31:26;29.40;36.90
10644;DHT22;5370;50.132;8.626;2022-07-23T10:34:12;29.20;37.40
10644;DHT22;5370;50.132;8.626;2022-07-23T10:37:21;29.00;37.70
10644;DHT22;5370;50.132;8.626;2022-07-23T10:42:38;28.80;38.10
10644;DHT22;5370;50.132;8.626;2022-07-23T10:47:50;28.90;39.00
10644;DHT22;5370;50.132;8.626;2022-07-23T10:57:57;29.20;38.40
10644;DHT22;5370;50.132;8.626;2022-07-23T11:00:27;29.10;38.10
10644;DHT22;5370;50.132;8.626;2022-07-23T11:02:55;29.00;38.00
10644;DHT22;5370;50.132;8.626;2022-07-23T11:05:24;28.80;37.60
10644;DHT22;5370;50.132;8.626;2022-07-23T11:10:38;28.60;38.90
10644;DHT22;5370;50.132;8.626;2022-07-23T11:31:58;29.50;37.90
10644;DHT22;5370;50.132;8.626;2022-07-23T11:36:57;29.60;37.60
10644;DHT22;5370;50.132;8.626;2022-07-23T11:39:25;29.80;37.70
10644;DHT22;5370;50.132;8.626;2022-07-23T11:41:52;29.90;37.40
10644;DHT22;5370;50.132;8.626;2022-07-23T11:44:31;30.00;37.30
10644;DHT22;5370;50.132;8.626;2022-07-23T11:47:03;30.10;37.20
10644;DHT22;5370;50.132;8.626;2022-07-23T11:49:29;30.20;36.70
10644;DHT22;5370;50.132;8.626;2022-07-23T11:52:08;30.20;36.50
10644;DHT22;5370;50.132;8.626;2022-07-23T11:57:25;30.20;35.60
10644;DHT22;5370;50.132;8.626;2022-07-23T11:59:57;30.10;35.50
10644;DHT22;5370;50.132;8.626;2022-07-23T12:02:24;29.90;35.80
10644;DHT22;5370;50.132;8.626;2022-07-23T12:04:51;29.90;36.00
10644;DHT22;5370;50.132;8.626;2022-07-23T12:09:56;30.10;36.10
10644;DHT22;5370;50.132;8.626;2022-07-23T12:12:22;30.20;35.80
10644;DHT22;5370;50.132;8.626;2022-07-23T12:17:14;30.50;35.30
10644;DHT22;5370;50.132;8.626;2022-07-23T12:19:39;30.50;35.20
10644;DHT22;5370;50.132;8.626;2022-07-23T12:22:05;30.50;35.10
10644;DHT22;5370;50.132;8.626;2022-07-23T12:24:31;30.60;35.20
10644;DHT22;5370;50.132;8.626;2022-07-23T12:27:12;30.80;35.00
10644;DHT22;5370;50.132;8.626;2022-07-23T12:29:39;30.90;34.50
10644;DHT22;5370;50.132;8.626;2022-07-23T12:32:26;30.90;34.00
10644;DHT22;5370;50.132;8.626;2022-07-23T12:35:22;30.80;34.00
10644;DHT22;5370;50.132;8.626;2022-07-23T12:37:50;30.40;34.10
10644;DHT22;5370;50.132;8.626;2022-07-23T12:40:32;30.20;34.60
10644;DHT22;5370;50.132;8.626;2022-07-23T12:43:00;30.20;35.00
10644;DHT22;5370;50.132;8.626;2022-07-23T12:45:28;30.10;35.10
10644;DHT22;5370;50.132;8.626;2022-07-23T12:48:05;30.00;35.00
10644;DHT22;5370;50.132;8.626;2022-07-23T12:50:42;29.80;35.10
10644;DHT22;5370;50.132;8.626;2022-07-23T12:53:09;29.60;35.40
10644;DHT22;5370;50.132;8.626;2022-07-23T12:55:36;29.70;35.60
10644;DHT22;5370;50.132;8.626;2022-07-23T12:58:13;29.90;35.50
10644;DHT22;5370;50.132;8.626;2022-07-23T13:00:55;30.10;35.30
10644;DHT22;5370;50.132;8.626;2022-07-23T13:03:40;30.40;35.00
10644;DHT22;5370;50.132;8.626;2022-07-23T13:06:10;30.80;34.30
10644;DHT22;5370;50.132;8.626;2022-07-23T13:08:38;31.00;33.80
10644;DHT22;5370;50.132;8.626;2022-07-23T13:11:05;31.30;33.70
10644;DHT22;5370;50.132;8.626;2022-07-23T13:13:33;31.50;33.30
10644;DHT22;5370;50.132;8.626;2022-07-23T13:15:59;31.70;33.00
10644;DHT22;5370;50.132;8.626;2022-07-23T13:18:25;31.90;32.50
10644;DHT22;5370;50.132;8.626;2022-07-23T13:20:52;31.90;32.40
10644;DHT22;5370;50.132;8.626;2022-07-23T13:23:18;31.90;32.30
10644;DHT22;5370;50.132;8.626;2022-07-23T13:25:43;31.80;31.70
10644;DHT22;5370;50.132;8.626;2022-07-23T13:28:09;31.70;31.90
10644;DHT22;5370;50.132;8.626;2022-07-23T13:30:35;31.70;31.90
10644;DHT22;5370;50.132;8.626;2022-07-23T13:33:03;31.70;32.00
10644;DHT22;5370;50.132;8.626;2022-07-23T13:35:29;31.70;32.50
10644;DHT22;5370;50.132;8.626;2022-07-23T13:37:54;31.80;31.90
10644;DHT22;5370;50.132;8.626;2022-07-23T13:40:20;31.80;31.80
10644;DHT22;5370;50.132;8.626;2022-07-23T13:42:46;31.90;31.50
10644;DHT22;5370;50.132;8.626;2022-07-23T13:45:12;32.00;31.30
10644;DHT22;5370;50.132;8.626;2022-07-23T13:47:37;32.00;31.20
10644;DHT22;5370;50.132;8.626;2022-07-23T13:50:04;32.00;30.80
10644;DHT22;5370;50.132;8.626;2022-07-23T13:52:30;31.90;30.70
10644;DHT22;5370;50.132;8.626;2022-07-23T13:54:55;31.90;31.00
10644;DHT22;5370;50.132;8.626;2022-07-23T13:57:21;31.90;31.00
10644;DHT22;5370;50.132;8.626;2022-07-23T13:59:46;31.90;31.20
10644;DHT22;5370;50.132;8.626;2022-07-23T14:02:14;31.90;31.50
10644;DHT22;5370;50.132;8.626;2022-07-23T14:04:41;31.90;31.40
10644;DHT22;5370;50.132;8.626;2022-07-23T14:07:07;31.90;31.20
10644;DHT22;5370;50.132;8.626;2022-07-23T14:09:32;31.70;30.90
10644;DHT22;5370;50.132;8.626;2022-07-23T14:11:59;31.60;31.10
10644;DHT22;5370;50.132;8.626;2022-07-23T14:14:25;31.50;31.40
10644;DHT22;5370;50.132;8.626;2022-07-23T14:16:50;31.40;31.60
10644;DHT22;5370;50.132;8.626;2022-07-23T14:19:16;31.40;31.80
10644;DHT22;5370;50.132;8.626;2022-07-23T14:21:41;31.50;31.80
10644;DHT22;5370;50.132;8.626;2022-07-23T14:24:08;31.60;31.70
10644;DHT22;5370;50.132;8.626;2022-07-23T14:26:33;31.60;31.60
10644;DHT22;5370;50.132;8.626;2022-07-23T14:28:59;31.70;31.50
10644;DHT22;5370;50.132;8.626;2022-07-23T14:31:24;31.70;31.10
10644;DHT22;5370;50.132;8.626;2022-07-23T14:33:50;31.70;31.00
10644;DHT22;5370;50.132;8.626;2022-07-23T14:36:16;31.70;30.90
10644;DHT22;5370;50.132;8.626;2022-07-23T14:38:42;31.90;31.00
10644;DHT22;5370;50.132;8.626;2022-07-23T14:41:07;31.90;30.90
10644;DHT22;5370;50.132;8.626;2022-07-23T14:43:34;32.10;30.90
10644;DHT22;5370;50.132;8.626;2022-07-23T14:45:59;32.20;30.60
10644;DHT22;5370;50.132;8.626;2022-07-23T14:48:25;32.40;30.00
10644;DHT22;5370;50.132;8.626;2022-07-23T14:50:51;32.50;29.80
10644;DHT22;5370;50.132;8.626;2022-07-23T14:53:17;32.50;29.50
10644;DHT22;5370;50.132;8.626;2022-07-23T14:55:42;32.50;29.50
10644;DHT22;5370;50.132;8.626;2022-07-23T14:58:08;32.50;29.50
10644;DHT22;5370;50.132;8.626;2022-07-23T15:00:34;32.50;29.50
10644;DHT22;5370;50.132;8.626;2022-07-23T15:03:00;32.50;29.50
10644;DHT22;5370;50.132;8.626;2022-07-23T15:05:25;32.60;29.40
10644;DHT22;5370;50.132;8.626;2022-07-23T15:07:51;32.60;29.60
10644;DHT22;5370;50.132;8.626;2022-07-23T15:10:17;32.60;29.10
10644;DHT22;5370;50.132;8.626;2022-07-23T15:12:42;32.60;29.10
10644;DHT22;5370;50.132;8.626;2022-07-23T15:15:08;32.80;29.20
10644;DHT22;5370;50.132;8.626;2022-07-23T15:17:34;32.90;28.90
10644;DHT22;5370;50.132;8.626;2022-07-23T15:19:59;32.90;28.70
10644;DHT22;5370;50.132;8.626;2022-07-23T15:22:25;32.90;28.60
10644;DHT22;5370;50.132;8.626;2022-07-23T15:24:51;32.90;28.40
10644;DHT22;5370;50.132;8.626;2022-07-23T15:27:17;32.80;28.50
10644;DHT22;5370;50.132;8.626;2022-07-23T15:29:44;32.80;28.60
10644;DHT22;5370;50.132;8.626;2022-07-23T15:32:10;32.80;28.50
10644;DHT22;5370;50.132;8.626;2022-07-23T15:34:37;32.70;28.50
10644;DHT22;5370;50.132;8.626;2022-07-23T15:37:03;32.60;28.50
10644;DHT22;5370;50.132;8.626;2022-07-23T15:39:30;32.50;28.50
10644;DHT22;5370;50.132;8.626;2022-07-23T15:41:58;32.40;28.60
10644;DHT22;5370;50.132;8.626;2022-07-23T15:44:24;32.30;28.70
10644;DHT22;5370;50.132;8.626;2022-07-23T15:46:50;32.20;28.80
10644;DHT22;5370;50.132;8.626;2022-07-23T15:49:15;32.10;29.00
10644;DHT22;5370;50.132;8.626;2022-07-23T15:51:41;32.00;28.90
10644;DHT22;5370;50.132;8.626;2022-07-23T15:54:07;31.90;28.90
10644;DHT22;5370;50.132;8.626;2022-07-23T15:56:32;31.80;29.00
10644;DHT22;5370;50.132;8.626;2022-07-23T15:58:58;31.60;28.90
10644;DHT22;5370;50.132;8.626;2022-07-23T16:01:23;31.50;29.00
10644;DHT22;5370;50.132;8.626;2022-07-23T16:03:49;31.30;29.10
10644;DHT22;5370;50.132;8.626;2022-07-23T16:06:15;31.10;29.10
10644;DHT22;5370;50.132;8.626;2022-07-23T16:08:41;31.10;29.30
10644;DHT22;5370;50.132;8.626;2022-07-23T16:11:06;31.00;29.40
10644;DHT22;5370;50.132;8.626;2022-07-23T16:13:32;31.00;29.50
10644;DHT22;5370;50.132;8.626;2022-07-23T16:15:58;30.80;29.40
10644;DHT22;5370;50.132;8.626;2022-07-23T16:18:24;30.90;29.60
10644;DHT22;5370;50.132;8.626;2022-07-23T16:20:51;30.90;29.60
10644;DHT22;5370;50.132;8.626;2022-07-23T16:23:17;30.90;29.70
10644;DHT22;5370;50.132;8.626;2022-07-23T16:25:43;30.80;29.60
10644;DHT22;5370;50.132;8.626;2022-07-23T16:28:09;30.70;29.40
10644;DHT22;5370;50.132;8.626;2022-07-23T16:30:34;30.60;29.20
10644;DHT22;5370;50.132;8.626;2022-07-23T16:33:01;30.50;29.20
10644;DHT22;5370;50.132;8.626;2022-07-23T16:35:27;30.40;29.30
10644;DHT22;5370;50.132;8.626;2022-07-23T16:37:53;30.30;29.50